createdAt,value
2018-09-09T00:04:52.900Z,3.63
2018-09-09T00:09:56.933Z,2.97
2018-09-09T00:15:00.834Z,4.97
2018-09-09T00:20:05.142Z,3.60
2018-09-09T00:25:08.947Z,4.77
2018-09-09T00:30:12.983Z,4.10
2018-09-09T00:35:17.033Z,3.77
2018-09-09T00:40:21.059Z,4.83
2018-09-09T00:45:25.157Z,5.03
2018-09-09T00:50:34.418Z,3.30
2018-09-09T00:55:38.191Z,5.77
2018-09-09T01:00:47.428Z,7.23
2018-09-09T01:05:51.261Z,3.63
2018-09-09T01:10:55.058Z,4.30
2018-09-09T01:15:58.859Z,4.20
2018-09-09T01:21:02.898Z,5.20
2018-09-09T01:26:07.043Z,4.53
2018-09-09T01:31:11.065Z,4.53
2018-09-09T01:36:14.903Z,4.33
2018-09-09T01:41:18.935Z,3.67
2018-09-09T01:46:23.048Z,5.70
2018-09-09T01:51:27.090Z,4.57
2018-09-09T01:56:31.187Z,3.90
2018-09-09T02:01:34.993Z,4.53
2018-09-09T02:06:38.786Z,4.70
2018-09-09T02:11:42.828Z,4.07
2018-09-09T02:16:46.875Z,7.17
2018-09-09T02:21:50.914Z,4.70
2018-09-09T02:26:54.946Z,3.73
2018-09-09T02:31:58.788Z,3.50
2018-09-09T02:37:02.602Z,3.40
2018-09-09T02:42:06.744Z,4.03
2018-09-09T02:47:10.883Z,3.40
2018-09-09T02:52:14.949Z,5.07
2018-09-09T02:57:18.770Z,5.07
2018-09-09T03:02:22.645Z,3.93
2018-09-09T03:07:26.466Z,3.57
2018-09-09T03:12:30.376Z,4.20
2018-09-09T03:17:34.518Z,5.80
2018-09-09T03:22:38.313Z,3.63
2018-09-09T03:27:42.337Z,5.67
2018-09-09T03:32:46.191Z,4.03
2018-09-09T03:37:50.223Z,3.77
2018-09-09T03:42:54.017Z,3.33
2018-09-09T03:47:58.611Z,3.72
2018-09-09T03:53:02.706Z,3.83
2018-09-09T03:58:06.819Z,3.73
2018-09-09T04:03:17.146Z,3.40
2018-09-09T04:08:21.257Z,4.53
2018-09-09T04:13:25.080Z,5.03
2018-09-09T04:18:30.129Z,4.30
2018-09-09T04:23:34.223Z,4.10
2018-09-09T04:28:38.322Z,3.60
2018-09-09T04:33:42.157Z,4.90
2018-09-09T04:38:46.791Z,4.10
2018-09-09T04:43:50.848Z,3.87
2018-09-09T04:48:54.879Z,3.90
2018-09-09T04:53:58.926Z,5.23
2018-09-09T04:59:02.734Z,4.03
2018-09-09T05:04:06.573Z,4.17
2018-09-09T05:09:10.634Z,3.95
2018-09-09T05:14:14.678Z,3.30
2018-09-09T05:19:18.702Z,4.27
2018-09-09T05:24:22.751Z,3.97
2018-09-09T05:29:26.549Z,4.87
2018-09-09T05:34:30.822Z,3.83
2018-09-09T05:39:34.947Z,4.17
2018-09-09T05:44:38.811Z,4.23
2018-09-09T05:49:42.585Z,3.80
2018-09-09T05:54:46.443Z,6.20
2018-09-09T05:59:50.583Z,3.87
2018-09-09T06:04:54.967Z,4.87
2018-09-09T06:09:59.295Z,3.77
2018-09-09T06:15:03.464Z,4.10
2018-09-09T06:20:07.877Z,4.30
2018-09-09T06:25:11.718Z,4.57
2018-09-09T06:30:15.919Z,5.28
2018-09-09T06:35:20.013Z,4.65
2018-09-09T06:40:23.902Z,4.70
2018-09-09T06:45:28.038Z,4.40
2018-09-09T06:50:31.857Z,3.70
2018-09-09T06:55:35.942Z,4.57
2018-09-09T07:00:39.781Z,3.37
2018-09-09T07:05:43.628Z,4.30
2018-09-09T07:10:47.754Z,3.50
2018-09-09T07:15:51.851Z,4.30
2018-09-09T07:20:55.929Z,3.10
2018-09-09T07:25:59.817Z,3.60
2018-09-09T07:31:03.925Z,3.70
2018-09-09T07:36:08.075Z,3.33
2018-09-09T07:41:11.902Z,3.73
2018-09-09T07:46:16.010Z,3.53
2018-09-09T07:51:20.090Z,3.62
2018-09-09T07:56:23.950Z,3.13
2018-09-09T08:01:28.089Z,2.70
2018-09-09T08:06:31.922Z,2.70
2018-09-09T08:11:36.855Z,2.97
2018-09-09T08:16:40.963Z,2.40
2018-09-09T08:21:45.678Z,2.27
2018-09-09T08:26:49.923Z,3.73
2018-09-09T08:31:54.022Z,3.00
2018-09-09T08:36:57.858Z,1.93
2018-09-09T08:42:01.745Z,1.60
2018-09-09T08:47:05.866Z,1.80
2018-09-09T08:52:10.045Z,1.83
2018-09-09T08:57:14.747Z,1.93
2018-09-09T09:02:18.608Z,4.27
2018-09-09T09:07:22.782Z,2.03
2018-09-09T09:12:26.858Z,1.83
2018-09-09T09:17:30.995Z,1.70
2018-09-09T09:22:35.123Z,2.70
2018-09-09T09:27:38.961Z,1.77
2018-09-09T09:32:46.414Z,2.90
2018-09-09T09:37:50.556Z,3.80
2018-09-09T09:42:54.653Z,1.50
2018-09-09T09:47:58.957Z,2.80
2018-09-09T09:53:03.123Z,2.80
2018-09-09T09:58:07.436Z,2.43
2018-09-09T10:03:11.550Z,3.00
2018-09-09T10:08:15.405Z,2.37
2018-09-09T10:13:19.480Z,2.37
2018-09-09T10:18:23.302Z,2.47
2018-09-09T10:23:27.148Z,2.87
2018-09-09T10:28:31.026Z,2.03
2018-09-09T10:33:35.111Z,2.70
2018-09-09T10:38:38.929Z,2.53
2018-09-09T10:43:42.774Z,1.60
2018-09-09T10:48:46.862Z,1.53
2018-09-09T10:53:50.922Z,1.60
2018-09-09T10:58:54.835Z,4.37
2018-09-09T11:03:58.559Z,2.67
2018-09-09T11:09:02.588Z,2.60
2018-09-09T11:14:06.436Z,2.13
2018-09-09T11:19:10.471Z,2.90
2018-09-09T11:24:14.407Z,2.20
2018-09-09T11:29:18.314Z,2.10
2018-09-09T11:34:22.239Z,2.27
2018-09-09T11:39:26.030Z,1.63
2018-09-09T11:44:29.866Z,1.40
2018-09-09T11:49:33.916Z,2.20
2018-09-09T11:54:38.061Z,2.73
2018-09-09T11:59:41.859Z,1.40
2018-09-09T12:04:45.950Z,2.23
2018-09-09T12:09:50.228Z,1.87
2018-09-09T12:14:54.422Z,1.27
2018-09-09T12:19:58.437Z,1.60
2018-09-09T12:25:02.461Z,1.40
2018-09-09T12:30:06.941Z,1.70
2018-09-09T12:35:10.742Z,1.30
2018-09-09T12:40:14.854Z,1.63
2018-09-09T12:45:24.235Z,2.20
2018-09-09T12:50:28.381Z,1.30
2018-09-09T12:55:32.466Z,3.27
2018-09-09T13:00:36.656Z,1.73
2018-09-09T13:05:40.718Z,1.23
2018-09-09T13:10:44.831Z,1.83
2018-09-09T13:15:49.455Z,1.47
2018-09-09T13:20:53.284Z,3.17
2018-09-09T13:25:57.359Z,1.67
2018-09-09T13:31:01.446Z,1.70
2018-09-09T13:36:06.463Z,1.17
2018-09-09T13:41:11.372Z,2.33
2018-09-09T13:46:15.488Z,1.13
2018-09-09T13:51:19.578Z,1.30
2018-09-09T13:56:23.434Z,1.17
2018-09-09T14:01:27.265Z,1.93
2018-09-09T14:06:31.118Z,1.37
2018-09-09T14:11:35.252Z,1.20
2018-09-09T14:16:39.318Z,1.23
2018-09-09T14:21:43.415Z,1.17
2018-09-09T14:26:47.481Z,1.93
2018-09-09T14:31:51.662Z,1.27
2018-09-09T14:36:55.750Z,3.23
2018-09-09T14:41:59.568Z,1.97
2018-09-09T14:47:03.634Z,1.10
2018-09-09T14:52:07.532Z,1.33
2018-09-09T14:57:11.593Z,2.40
2018-09-09T15:02:16.212Z,2.30
2018-09-09T15:07:20.137Z,1.37
2018-09-09T15:12:23.973Z,2.73
2018-09-09T15:17:27.860Z,1.40
2018-09-09T15:22:31.763Z,1.83
2018-09-09T15:27:35.539Z,2.93
2018-09-09T15:32:39.333Z,2.20
2018-09-09T15:37:43.201Z,3.30
2018-09-09T15:42:47.018Z,2.60
2018-09-09T15:47:51.119Z,4.30
2018-09-09T15:52:55.176Z,1.30
2018-09-09T15:57:59.227Z,3.50
2018-09-09T16:03:03.245Z,1.30
2018-09-09T16:08:07.507Z,1.37
2018-09-09T16:13:11.342Z,2.87
2018-09-09T16:18:15.265Z,1.53
2018-09-09T16:23:19.412Z,1.00
2018-09-09T16:28:23.457Z,2.80
2018-09-09T16:33:27.546Z,1.30
2018-09-09T16:38:31.466Z,1.60
2018-09-09T16:43:35.651Z,2.53
2018-09-09T16:48:39.467Z,2.40
2018-09-09T16:53:43.519Z,1.50
2018-09-09T16:58:47.539Z,1.30
2018-09-09T17:03:51.545Z,1.73
2018-09-09T17:08:55.606Z,1.30
2018-09-09T17:13:59.687Z,1.10
2018-09-09T17:19:03.511Z,2.63
2018-09-09T17:24:07.366Z,1.97
2018-09-09T17:29:11.399Z,1.50
2018-09-09T17:34:15.506Z,2.13
2018-09-09T17:39:19.354Z,1.63
2018-09-09T17:44:23.547Z,1.40
2018-09-09T17:49:27.711Z,1.67
2018-09-09T17:54:31.838Z,1.33
2018-09-09T17:59:35.942Z,2.57
2018-09-09T18:04:39.785Z,1.30
2018-09-09T18:09:43.670Z,2.03
2018-09-09T18:14:47.507Z,1.93
2018-09-09T18:19:51.619Z,1.67
2018-09-09T18:24:56.167Z,2.97
2018-09-09T18:30:00.005Z,4.47
2018-09-09T18:35:04.307Z,1.93
2018-09-09T18:40:08.352Z,2.83
2018-09-09T18:45:12.414Z,2.77
2018-09-09T18:50:16.389Z,2.33
2018-09-09T18:55:20.640Z,1.70
2018-09-09T19:00:24.636Z,1.60
2018-09-09T19:05:28.619Z,3.13
2018-09-09T19:10:32.881Z,2.70
2018-09-09T19:15:37.187Z,1.70
2018-09-09T19:20:41.385Z,3.00
2018-09-09T19:25:45.650Z,2.40
2018-09-09T19:30:49.798Z,1.70
2018-09-09T19:35:53.677Z,4.03
2018-09-09T19:40:58.173Z,1.70
2018-09-09T19:46:02.282Z,1.90
2018-09-09T19:51:06.525Z,1.70
2018-09-09T19:56:10.583Z,2.40
2018-09-09T20:01:15.461Z,2.33
2018-09-09T20:06:19.547Z,3.33
2018-09-09T20:11:29.874Z,2.37
2018-09-09T20:16:33.721Z,3.67
2018-09-09T20:21:37.914Z,2.93
2018-09-09T20:26:41.750Z,3.33
2018-09-09T20:31:45.870Z,4.23
2018-09-09T20:36:50.766Z,2.60
2018-09-09T20:41:54.850Z,3.70
2018-09-09T20:46:58.938Z,2.67
2018-09-09T20:52:03.007Z,3.50
2018-09-09T20:57:07.938Z,2.70
2018-09-09T21:02:11.995Z,2.90
2018-09-09T21:07:16.152Z,2.67
2018-09-09T21:12:20.265Z,2.93
2018-09-09T21:17:24.411Z,3.63
2018-09-09T21:22:28.681Z,3.03
2018-09-09T21:27:32.754Z,2.73
2018-09-09T21:32:36.854Z,2.60
2018-09-09T21:37:40.662Z,2.60
2018-09-09T21:42:44.782Z,3.90
2018-09-09T21:47:48.846Z,3.73
2018-09-09T21:52:52.950Z,2.90
2018-09-09T21:57:57.041Z,4.20
2018-09-09T22:03:00.861Z,3.20
2018-09-09T22:08:04.930Z,2.60
2018-09-09T22:13:08.764Z,3.30
2018-09-09T22:18:12.605Z,2.40
2018-09-09T22:23:16.430Z,2.67
2018-09-09T22:28:20.614Z,4.80
2018-09-09T22:33:24.686Z,2.97
2018-09-09T22:38:28.771Z,3.67
2018-09-09T22:53:07.259Z,2.83
2018-09-09T22:58:11.081Z,3.83
2018-09-09T23:03:15.166Z,4.37
2018-09-09T23:08:19.078Z,3.43
2018-09-09T23:13:23.142Z,2.63
2018-09-09T23:18:27.227Z,2.30
2018-09-09T23:23:31.319Z,2.00
2018-09-09T23:28:35.179Z,2.53
2018-09-09T23:33:39.290Z,4.80
2018-09-09T23:38:43.143Z,3.17
2018-09-09T23:43:47.298Z,3.00
2018-09-09T23:48:51.494Z,2.53
2018-09-09T23:53:55.558Z,3.10
2018-09-09T23:58:59.620Z,2.85
